sensor_id;sensor_type;location;lat;lon;timestamp;P1;durP1;ratioP1;P2;durP2;ratioP2
76117;SDS011;64851;50.232;20.364;2022-11-12T17:00:45;12.70;;;8.20;;
76117;SDS011;64851;50.232;20.364;2022-11-12T17:03:27;16.10;;;8.60;;
76117;SDS011;64851;50.232;20.364;2022-11-12T17:05:54;16.00;;;8.80;;
76117;SDS011;64851;50.232;20.364;2022-11-12T17:08:29;14.30;;;8.70;;
76117;SDS011;64851;50.232;20.364;2022-11-12T17:11:04;15.90;;;10.00;;
76117;SDS011;64851;50.232;20.364;2022-11-12T17:13:44;16.50;;;9.60;;
76117;SDS011;64851;50.232;20.364;2022-11-12T17:16:26;16.50;;;9.60;;
76117;SDS011;64851;50.232;20.364;2022-11-12T17:19:02;18.20;;;9.00;;
76117;SDS011;64851;50.232;20.364;2022-11-12T17:21:29;16.30;;;8.30;;
76117;SDS011;64851;50.232;20.364;2022-11-12T17:24:03;16.70;;;8.60;;
76117;SDS011;64851;50.232;20.364;2022-11-12T17:26:30;17.70;;;8.30;;
76117;SDS011;64851;50.232;20.364;2022-11-12T17:31:33;20.20;;;9.40;;
76117;SDS011;64851;50.232;20.364;2022-11-12T17:34:07;16.40;;;8.20;;
76117;SDS011;64851;50.232;20.364;2022-11-12T17:36:40;20.50;;;8.20;;
76117;SDS011;64851;50.232;20.364;2022-11-12T17:39:09;17.50;;;7.30;;
76117;SDS011;64851;50.232;20.364;2022-11-12T17:41:43;16.20;;;7.70;;
76117;SDS011;64851;50.232;20.364;2022-11-12T17:44:19;17.70;;;7.70;;
76117;SDS011;64851;50.232;20.364;2022-11-12T17:46:52;19.10;;;7.60;;
76117;SDS011;64851;50.232;20.364;2022-11-12T17:49:25;16.10;;;7.30;;
76117;SDS011;64851;50.232;20.364;2022-11-12T17:51:52;17.20;;;8.00;;
76117;SDS011;64851;50.232;20.364;2022-11-12T17:56:53;15.70;;;6.70;;
76117;SDS011;64851;50.232;20.364;2022-11-12T17:59:35;17.80;;;7.80;;
76117;SDS011;64851;50.232;20.364;2022-11-12T18:02:16;17.00;;;7.50;;
76117;SDS011;64851;50.232;20.364;2022-11-12T18:04:51;21.30;;;8.60;;
76117;SDS011;64851;50.232;20.364;2022-11-12T18:07:18;20.50;;;9.20;;
76117;SDS011;64851;50.232;20.364;2022-11-12T18:09:51;21.00;;;8.40;;
76117;SDS011;64851;50.232;20.364;2022-11-12T18:12:19;18.70;;;7.80;;
76117;SDS011;64851;50.232;20.364;2022-11-12T18:14:45;22.60;;;8.30;;
76117;SDS011;64851;50.232;20.364;2022-11-12T18:17:18;19.40;;;7.80;;
76117;SDS011;64851;50.232;20.364;2022-11-12T18:19:45;22.30;;;8.60;;
76117;SDS011;64851;50.232;20.364;2022-11-12T18:22:18;17.30;;;6.70;;
76117;SDS011;64851;50.232;20.364;2022-11-12T18:24:46;20.10;;;9.10;;
76117;SDS011;64851;50.232;20.364;2022-11-12T18:27:24;18.00;;;9.10;;
76117;SDS011;64851;50.232;20.364;2022-11-12T18:29:52;21.00;;;8.70;;
76117;SDS011;64851;50.232;20.364;2022-11-12T18:32:25;19.80;;;9.40;;
76117;SDS011;64851;50.232;20.364;2022-11-12T18:34:52;21.50;;;10.00;;
76117;SDS011;64851;50.232;20.364;2022-11-12T18:37:26;27.00;;;12.90;;
76117;SDS011;64851;50.232;20.364;2022-11-12T18:39:52;23.30;;;10.70;;
76117;SDS011;64851;50.232;20.364;2022-11-12T18:42:19;29.20;;;13.90;;
76117;SDS011;64851;50.232;20.364;2022-11-12T18:44:53;22.60;;;9.70;;
76117;SDS011;64851;50.232;20.364;2022-11-12T18:47:20;20.20;;;8.60;;
76117;SDS011;64851;50.232;20.364;2022-11-12T18:49:53;17.90;;;7.70;;
76117;SDS011;64851;50.232;20.364;2022-11-12T18:52:22;19.70;;;8.20;;
76117;SDS011;64851;50.232;20.364;2022-11-12T18:54:58;20.20;;;8.40;;
76117;SDS011;64851;50.232;20.364;2022-11-12T18:57:32;18.60;;;7.30;;
76117;SDS011;64851;50.232;20.364;2022-11-12T19:00:06;19.10;;;7.60;;
76117;SDS011;64851;50.232;20.364;2022-11-12T19:02:41;19.90;;;7.80;;
76117;SDS011;64851;50.232;20.364;2022-11-12T19:05:08;17.20;;;8.20;;
76117;SDS011;64851;50.232;20.364;2022-11-12T19:07:42;18.20;;;8.60;;
76117;SDS011;64851;50.232;20.364;2022-11-12T19:10:09;16.20;;;7.50;;
76117;SDS011;64851;50.232;20.364;2022-11-12T19:12:40;23.20;;;8.00;;
76117;SDS011;64851;50.232;20.364;2022-11-12T19:15:14;17.40;;;8.20;;
76117;SDS011;64851;50.232;20.364;2022-11-12T19:17:40;19.00;;;9.40;;
76117;SDS011;64851;50.232;20.364;2022-11-12T19:20:15;15.80;;;8.30;;
76117;SDS011;64851;50.232;20.364;2022-11-12T19:22:43;17.90;;;7.00;;
76117;SDS011;64851;50.232;20.364;2022-11-12T19:25:16;20.10;;;8.00;;
76117;SDS011;64851;50.232;20.364;2022-11-12T19:27:52;17.10;;;7.50;;
76117;SDS011;64851;50.232;20.364;2022-11-12T19:30:26;17.30;;;7.90;;
76117;SDS011;64851;50.232;20.364;2022-11-12T19:32:53;19.60;;;7.50;;
76117;SDS011;64851;50.232;20.364;2022-11-12T19:35:29;22.70;;;10.10;;
76117;SDS011;64851;50.232;20.364;2022-11-12T19:38:04;35.40;;;15.20;;
76117;SDS011;64851;50.232;20.364;2022-11-12T19:40:38;21.80;;;10.40;;
76117;SDS011;64851;50.232;20.364;2022-11-12T19:43:06;28.80;;;13.30;;
76117;SDS011;64851;50.232;20.364;2022-11-12T19:45:41;25.20;;;12.30;;
76117;SDS011;64851;50.232;20.364;2022-11-12T19:48:12;25.30;;;12.40;;
76117;SDS011;64851;50.232;20.364;2022-11-12T19:50:47;25.30;;;11.40;;
76117;SDS011;64851;50.232;20.364;2022-11-12T19:53:14;20.20;;;9.60;;
76117;SDS011;64851;50.232;20.364;2022-11-12T19:55:47;24.30;;;10.10;;
76117;SDS011;64851;50.232;20.364;2022-11-12T20:01:07;18.40;;;7.70;;
76117;SDS011;64851;50.232;20.364;2022-11-12T20:03:43;68.80;;;26.60;;
76117;SDS011;64851;50.232;20.364;2022-11-12T20:06:16;50.70;;;20.40;;
76117;SDS011;64851;50.232;20.364;2022-11-12T20:08:50;37.80;;;15.10;;
76117;SDS011;64851;50.232;20.364;2022-11-12T20:11:17;28.70;;;14.70;;
76117;SDS011;64851;50.232;20.364;2022-11-12T20:13:54;30.00;;;13.40;;
76117;SDS011;64851;50.232;20.364;2022-11-12T20:16:21;27.40;;;12.30;;
76117;SDS011;64851;50.232;20.364;2022-11-12T20:18:56;30.20;;;14.30;;
76117;SDS011;64851;50.232;20.364;2022-11-12T20:21:31;33.60;;;14.60;;
76117;SDS011;64851;50.232;20.364;2022-11-12T20:23:59;30.80;;;14.50;;
76117;SDS011;64851;50.232;20.364;2022-11-12T20:26:34;30.70;;;15.20;;
76117;SDS011;64851;50.232;20.364;2022-11-12T20:29:01;29.50;;;16.10;;
76117;SDS011;64851;50.232;20.364;2022-11-12T20:31:35;31.20;;;15.00;;
76117;SDS011;64851;50.232;20.364;2022-11-12T20:34:03;33.80;;;15.10;;
76117;SDS011;64851;50.232;20.364;2022-11-12T20:36:36;30.40;;;15.10;;
76117;SDS011;64851;50.232;20.364;2022-11-12T20:39:09;32.60;;;15.10;;
76117;SDS011;64851;50.232;20.364;2022-11-12T20:41:36;36.10;;;16.30;;
76117;SDS011;64851;50.232;20.364;2022-11-12T20:44:09;28.30;;;15.00;;
